sensor_id;sensor_type;location;lat;lon;timestamp;P1;durP1;ratioP1;P2;durP2;ratioP2
30420;SDS011;17218;54.070;10.012;2023-08-24T00:01:33;2.15;;;1.70;;
30420;SDS011;17218;54.070;10.012;2023-08-24T00:03:59;6.97;;;1.95;;
30420;SDS011;17218;54.070;10.012;2023-08-24T00:06:25;2.33;;;1.70;;
30420;SDS011;17218;54.070;10.012;2023-08-24T00:08:52;1.85;;;1.48;;
30420;SDS011;17218;54.070;10.012;2023-08-24T00:11:19;1.73;;;1.40;;
30420;SDS011;17218;54.070;10.012;2023-08-24T00:13:45;1.80;;;1.33;;
30420;SDS011;17218;54.070;10.012;2023-08-24T00:16:14;1.83;;;1.73;;
30420;SDS011;17218;54.070;10.012;2023-08-24T00:18:42;1.65;;;1.50;;
30420;SDS011;17218;54.070;10.012;2023-08-24T00:21:09;1.88;;;1.42;;
30420;SDS011;17218;54.070;10.012;2023-08-24T00:23:37;1.60;;;1.50;;
30420;SDS011;17218;54.070;10.012;2023-08-24T00:26:03;1.50;;;1.40;;
30420;SDS011;17218;54.070;10.012;2023-08-24T00:28:30;1.83;;;1.30;;
30420;SDS011;17218;54.070;10.012;2023-08-24T00:30:56;1.77;;;1.30;;
30420;SDS011;17218;54.070;10.012;2023-08-24T00:33:23;1.77;;;1.27;;
30420;SDS011;17218;54.070;10.012;2023-08-24T00:35:50;2.25;;;1.30;;
30420;SDS011;17218;54.070;10.012;2023-08-24T00:38:17;2.20;;;1.48;;
30420;SDS011;17218;54.070;10.012;2023-08-24T00:40:43;1.20;;;1.10;;
30420;SDS011;17218;54.070;10.012;2023-08-24T00:43:10;1.38;;;1.20;;
30420;SDS011;17218;54.070;10.012;2023-08-24T00:45:37;2.10;;;1.38;;
30420;SDS011;17218;54.070;10.012;2023-08-24T00:48:04;2.20;;;1.55;;
30420;SDS011;17218;54.070;10.012;2023-08-24T00:50:31;1.98;;;1.10;;
30420;SDS011;17218;54.070;10.012;2023-08-24T00:52:59;2.10;;;1.50;;
30420;SDS011;17218;54.070;10.012;2023-08-24T00:55:25;2.80;;;1.38;;
30420;SDS011;17218;54.070;10.012;2023-08-24T00:57:53;1.35;;;1.25;;
30420;SDS011;17218;54.070;10.012;2023-08-24T01:00:19;1.77;;;1.40;;
30420;SDS011;17218;54.070;10.012;2023-08-24T01:02:46;3.80;;;1.63;;
30420;SDS011;17218;54.070;10.012;2023-08-24T01:05:13;1.67;;;1.52;;
30420;SDS011;17218;54.070;10.012;2023-08-24T01:07:39;1.55;;;1.38;;
30420;SDS011;17218;54.070;10.012;2023-08-24T01:10:09;2.55;;;1.55;;
30420;SDS011;17218;54.070;10.012;2023-08-24T01:12:39;2.40;;;1.60;;
30420;SDS011;17218;54.070;10.012;2023-08-24T01:15:16;1.73;;;1.38;;
30420;SDS011;17218;54.070;10.012;2023-08-24T01:17:47;5.05;;;1.55;;
30420;SDS011;17218;54.070;10.012;2023-08-24T01:20:16;2.17;;;1.58;;
30420;SDS011;17218;54.070;10.012;2023-08-24T01:22:45;1.63;;;1.50;;
30420;SDS011;17218;54.070;10.012;2023-08-24T01:25:24;2.58;;;1.50;;
30420;SDS011;17218;54.070;10.012;2023-08-24T01:28:00;2.15;;;1.55;;
30420;SDS011;17218;54.070;10.012;2023-08-24T01:30:28;3.05;;;1.58;;
30420;SDS011;17218;54.070;10.012;2023-08-24T01:32:55;3.22;;;1.20;;
30420;SDS011;17218;54.070;10.012;2023-08-24T01:35:22;2.08;;;1.40;;
30420;SDS011;17218;54.070;10.012;2023-08-24T01:37:48;2.70;;;1.88;;
30420;SDS011;17218;54.070;10.012;2023-08-24T01:40:16;2.05;;;1.40;;
30420;SDS011;17218;54.070;10.012;2023-08-24T01:42:55;2.67;;;2.30;;
30420;SDS011;17218;54.070;10.012;2023-08-24T01:45:28;2.58;;;1.60;;
30420;SDS011;17218;54.070;10.012;2023-08-24T01:47:56;1.67;;;1.58;;
30420;SDS011;17218;54.070;10.012;2023-08-24T01:50:23;3.03;;;2.05;;
30420;SDS011;17218;54.070;10.012;2023-08-24T01:52:50;1.90;;;1.42;;
30420;SDS011;17218;54.070;10.012;2023-08-24T01:55:17;3.85;;;1.77;;
30420;SDS011;17218;54.070;10.012;2023-08-24T01:57:44;1.40;;;1.30;;
30420;SDS011;17218;54.070;10.012;2023-08-24T02:00:11;2.28;;;1.60;;
30420;SDS011;17218;54.070;10.012;2023-08-24T02:02:39;1.55;;;1.30;;
30420;SDS011;17218;54.070;10.012;2023-08-24T02:05:08;2.33;;;1.60;;
30420;SDS011;17218;54.070;10.012;2023-08-24T02:07:35;3.22;;;2.10;;
30420;SDS011;17218;54.070;10.012;2023-08-24T02:10:01;1.83;;;1.70;;
30420;SDS011;17218;54.070;10.012;2023-08-24T02:12:28;1.50;;;1.40;;
30420;SDS011;17218;54.070;10.012;2023-08-24T02:14:54;5.18;;;1.60;;
30420;SDS011;17218;54.070;10.012;2023-08-24T02:17:21;1.73;;;1.63;;
30420;SDS011;17218;54.070;10.012;2023-08-24T02:19:50;3.15;;;1.60;;
30420;SDS011;17218;54.070;10.012;2023-08-24T02:22:16;3.53;;;1.70;;
30420;SDS011;17218;54.070;10.012;2023-08-24T02:24:43;3.28;;;2.00;;
30420;SDS011;17218;54.070;10.012;2023-08-24T02:27:09;3.15;;;1.88;;
30420;SDS011;17218;54.070;10.012;2023-08-24T02:29:36;2.10;;;1.90;;
30420;SDS011;17218;54.070;10.012;2023-08-24T02:32:04;3.95;;;2.00;;
30420;SDS011;17218;54.070;10.012;2023-08-24T02:34:31;2.10;;;1.90;;
30420;SDS011;17218;54.070;10.012;2023-08-24T02:36:58;1.98;;;1.77;;
30420;SDS011;17218;54.070;10.012;2023-08-24T02:39:25;1.67;;;1.52;;
30420;SDS011;17218;54.070;10.012;2023-08-24T02:41:51;1.95;;;1.77;;
30420;SDS011;17218;54.070;10.012;2023-08-24T02:44:18;3.17;;;1.70;;
30420;SDS011;17218;54.070;10.012;2023-08-24T02:46:44;2.20;;;2.00;;
30420;SDS011;17218;54.070;10.012;2023-08-24T02:49:11;1.90;;;1.80;;
30420;SDS011;17218;54.070;10.012;2023-08-24T02:51:37;2.42;;;1.92;;
30420;SDS011;17218;54.070;10.012;2023-08-24T02:54:05;2.97;;;2.20;;
30420;SDS011;17218;54.070;10.012;2023-08-24T02:56:32;2.88;;;2.47;;
30420;SDS011;17218;54.070;10.012;2023-08-24T02:58:58;2.40;;;2.20;;
30420;SDS011;17218;54.070;10.012;2023-08-24T03:01:25;4.28;;;2.50;;
30420;SDS011;17218;54.070;10.012;2023-08-24T03:03:52;4.20;;;2.42;;
30420;SDS011;17218;54.070;10.012;2023-08-24T03:06:18;2.47;;;2.28;;
30420;SDS011;17218;54.070;10.012;2023-08-24T03:08:45;2.35;;;1.80;;
30420;SDS011;17218;54.070;10.012;2023-08-24T03:11:12;1.77;;;1.67;;
30420;SDS011;17218;54.070;10.012;2023-08-24T03:13:39;2.28;;;1.90;;
30420;SDS011;17218;54.070;10.012;2023-08-24T03:16:05;2.33;;;2.13;;
30420;SDS011;17218;54.070;10.012;2023-08-24T03:18:32;1.80;;;1.70;;
30420;SDS011;17218;54.070;10.012;2023-08-24T03:20:59;4.40;;;2.60;;
30420;SDS011;17218;54.070;10.012;2023-08-24T03:23:25;3.17;;;2.67;;
30420;SDS011;17218;54.070;10.012;2023-08-24T03:25:52;4.50;;;2.55;;
30420;SDS011;17218;54.070;10.012;2023-08-24T03:28:20;3.08;;;2.53;;
30420;SDS011;17218;54.070;10.012;2023-08-24T03:30:47;3.67;;;2.53;;
30420;SDS011;17218;54.070;10.012;2023-08-24T03:33:14;7.78;;;3.17;;
30420;SDS011;17218;54.070;10.012;2023-08-24T03:55:54;3.83;;;2.40;;
30420;SDS011;17218;54.070;10.012;2023-08-24T04:01:30;2.85;;;2.25;;
30420;SDS011;17218;54.070;10.012;2023-08-24T04:03:58;3.22;;;2.13;;
30420;SDS011;17218;54.070;10.012;2023-08-24T04:06:24;3.17;;;2.25;;
30420;SDS011;17218;54.070;10.012;2023-08-24T04:08:51;2.95;;;2.28;;
30420;SDS011;17218;54.070;10.012;2023-08-24T04:11:19;2.65;;;2.20;;
30420;SDS011;17218;54.070;10.012;2023-08-24T04:13:45;2.85;;;2.55;;
30420;SDS011;17218;54.070;10.012;2023-08-24T04:16:12;4.90;;;2.55;;
30420;SDS011;17218;54.070;10.012;2023-08-24T04:18:38;2.53;;;2.33;;
30420;SDS011;17218;54.070;10.012;2023-08-24T04:21:05;4.05;;;2.47;;
30420;SDS011;17218;54.070;10.012;2023-08-24T04:23:32;2.78;;;2.30;;
30420;SDS011;17218;54.070;10.012;2023-08-24T04:25:58;2.17;;;1.98;;
30420;SDS011;17218;54.070;10.012;2023-08-24T04:28:26;2.00;;;1.73;;
30420;SDS011;17218;54.070;10.012;2023-08-24T04:30:53;4.35;;;2.20;;
30420;SDS011;17218;54.070;10.012;2023-08-24T04:33:22;3.13;;;2.03;;
30420;SDS011;17218;54.070;10.012;2023-08-24T04:35:49;1.92;;;1.80;;
30420;SDS011;17218;54.070;10.012;2023-08-24T04:38:16;2.30;;;1.95;;
30420;SDS011;17218;54.070;10.012;2023-08-24T04:40:49;2.45;;;2.00;;
30420;SDS011;17218;54.070;10.012;2023-08-24T04:43:16;1.70;;;1.58;;
30420;SDS011;17218;54.070;10.012;2023-08-24T04:45:46;2.78;;;2.25;;
30420;SDS011;17218;54.070;10.012;2023-08-24T04:48:14;2.20;;;2.00;;
30420;SDS011;17218;54.070;10.012;2023-08-24T04:50:41;1.90;;;1.60;;
30420;SDS011;17218;54.070;10.012;2023-08-24T04:53:09;3.10;;;1.85;;
30420;SDS011;17218;54.070;10.012;2023-08-24T04:55:36;3.50;;;2.00;;
30420;SDS011;17218;54.070;10.012;2023-08-24T04:58:02;2.10;;;1.48;;
30420;SDS011;17218;54.070;10.012;2023-08-24T05:00:29;2.22;;;2.03;;
30420;SDS011;17218;54.070;10.012;2023-08-24T05:02:59;2.10;;;1.58;;
30420;SDS011;17218;54.070;10.012;2023-08-24T05:05:25;1.75;;;1.63;;
30420;SDS011;17218;54.070;10.012;2023-08-24T05:07:53;2.58;;;1.90;;
30420;SDS011;17218;54.070;10.012;2023-08-24T05:10:20;2.00;;;1.80;;
30420;SDS011;17218;54.070;10.012;2023-08-24T05:12:47;2.30;;;2.08;;
30420;SDS011;17218;54.070;10.012;2023-08-24T05:15:13;1.85;;;1.60;;
30420;SDS011;17218;54.070;10.012;2023-08-24T05:17:40;1.65;;;1.55;;
30420;SDS011;17218;54.070;10.012;2023-08-24T05:20:08;2.13;;;1.75;;
30420;SDS011;17218;54.070;10.012;2023-08-24T05:22:37;2.78;;;1.70;;
30420;SDS011;17218;54.070;10.012;2023-08-24T05:25:03;2.35;;;2.05;;
30420;SDS011;17218;54.070;10.012;2023-08-24T05:27:30;2.53;;;2.33;;
30420;SDS011;17218;54.070;10.012;2023-08-24T05:29:57;4.35;;;3.03;;
30420;SDS011;17218;54.070;10.012;2023-08-24T05:32:24;3.88;;;3.45;;
30420;SDS011;17218;54.070;10.012;2023-08-24T05:34:50;4.15;;;3.13;;
30420;SDS011;17218;54.070;10.012;2023-08-24T05:37:18;3.75;;;3.13;;
30420;SDS011;17218;54.070;10.012;2023-08-24T05:39:44;4.68;;;3.30;;
30420;SDS011;17218;54.070;10.012;2023-08-24T05:42:11;5.30;;;4.18;;
30420;SDS011;17218;54.070;10.012;2023-08-24T05:44:37;4.47;;;4.07;;
30420;SDS011;17218;54.070;10.012;2023-08-24T05:47:04;5.65;;;4.43;;
30420;SDS011;17218;54.070;10.012;2023-08-24T05:49:31;4.88;;;4.00;;
30420;SDS011;17218;54.070;10.012;2023-08-24T05:51:58;4.75;;;3.85;;
30420;SDS011;17218;54.070;10.012;2023-08-24T05:54:26;4.38;;;3.83;;
30420;SDS011;17218;54.070;10.012;2023-08-24T05:56:52;6.15;;;4.45;;
30420;SDS011;17218;54.070;10.012;2023-08-24T05:59:19;4.40;;;4.00;;
30420;SDS011;17218;54.070;10.012;2023-08-24T06:01:46;5.45;;;3.88;;
30420;SDS011;17218;54.070;10.012;2023-08-24T06:04:12;7.18;;;3.95;;
30420;SDS011;17218;54.070;10.012;2023-08-24T06:06:39;6.10;;;3.75;;
30420;SDS011;17218;54.070;10.012;2023-08-24T06:09:05;7.13;;;4.43;;
30420;SDS011;17218;54.070;10.012;2023-08-24T06:11:33;5.03;;;4.22;;
30420;SDS011;17218;54.070;10.012;2023-08-24T06:13:59;4.15;;;3.75;;
30420;SDS011;17218;54.070;10.012;2023-08-24T06:16:26;5.05;;;3.63;;
30420;SDS011;17218;54.070;10.012;2023-08-24T06:18:52;5.47;;;4.57;;
30420;SDS011;17218;54.070;10.012;2023-08-24T06:21:19;5.32;;;4.45;;
30420;SDS011;17218;54.070;10.012;2023-08-24T06:23:45;3.80;;;3.50;;
30420;SDS011;17218;54.070;10.012;2023-08-24T06:26:12;3.38;;;3.08;;
30420;SDS011;17218;54.070;10.012;2023-08-24T06:28:40;4.43;;;3.55;;
30420;SDS011;17218;54.070;10.012;2023-08-24T06:31:06;3.55;;;3.05;;
30420;SDS011;17218;54.070;10.012;2023-08-24T06:33:33;3.80;;;3.08;;
30420;SDS011;17218;54.070;10.012;2023-08-24T06:36:01;3.25;;;2.88;;
30420;SDS011;17218;54.070;10.012;2023-08-24T06:38:30;6.35;;;2.50;;
30420;SDS011;17218;54.070;10.012;2023-08-24T06:40:57;3.78;;;2.67;;
30420;SDS011;17218;54.070;10.012;2023-08-24T06:43:23;2.95;;;2.67;;
30420;SDS011;17218;54.070;10.012;2023-08-24T06:45:52;3.00;;;2.10;;
30420;SDS011;17218;54.070;10.012;2023-08-24T06:48:20;2.60;;;2.22;;
30420;SDS011;17218;54.070;10.012;2023-08-24T06:50:47;4.85;;;1.65;;
30420;SDS011;17218;54.070;10.012;2023-08-24T06:53:13;2.08;;;1.70;;
30420;SDS011;17218;54.070;10.012;2023-08-24T06:55:40;2.38;;;2.17;;
30420;SDS011;17218;54.070;10.012;2023-08-24T06:58:07;1.90;;;1.70;;
30420;SDS011;17218;54.070;10.012;2023-08-24T07:00:34;1.65;;;1.30;;
30420;SDS011;17218;54.070;10.012;2023-08-24T07:03:02;2.53;;;1.25;;
30420;SDS011;17218;54.070;10.012;2023-08-24T07:05:29;4.43;;;1.85;;
30420;SDS011;17218;54.070;10.012;2023-08-24T07:07:56;2.90;;;1.40;;
30420;SDS011;17218;54.070;10.012;2023-08-24T07:10:22;1.50;;;1.40;;
30420;SDS011;17218;54.070;10.012;2023-08-24T07:12:49;1.33;;;1.05;;
30420;SDS011;17218;54.070;10.012;2023-08-24T07:15:15;1.60;;;1.20;;
30420;SDS011;17218;54.070;10.012;2023-08-24T07:17:42;3.88;;;1.23;;
30420;SDS011;17218;54.070;10.012;2023-08-24T07:20:10;1.83;;;1.50;;
30420;SDS011;17218;54.070;10.012;2023-08-24T07:22:38;1.52;;;1.20;;
30420;SDS011;17218;54.070;10.012;2023-08-24T07:25:05;2.83;;;1.10;;
30420;SDS011;17218;54.070;10.012;2023-08-24T07:27:32;4.10;;;1.23;;
30420;SDS011;17218;54.070;10.012;2023-08-24T07:29:59;2.70;;;1.02;;
30420;SDS011;17218;54.070;10.012;2023-08-24T07:32:25;1.95;;;1.25;;
30420;SDS011;17218;54.070;10.012;2023-08-24T07:34:52;2.97;;;1.15;;
30420;SDS011;17218;54.070;10.012;2023-08-24T07:37:20;2.58;;;1.13;;
30420;SDS011;17218;54.070;10.012;2023-08-24T07:39:47;1.20;;;1.00;;
30420;SDS011;17218;54.070;10.012;2023-08-24T07:42:13;0.85;;;0.85;;
30420;SDS011;17218;54.070;10.012;2023-08-24T07:44:40;0.93;;;0.80;;
30420;SDS011;17218;54.070;10.012;2023-08-24T07:47:06;1.45;;;1.02;;
30420;SDS011;17218;54.070;10.012;2023-08-24T07:49:33;2.90;;;0.93;;
30420;SDS011;17218;54.070;10.012;2023-08-24T07:51:59;1.95;;;1.25;;
30420;SDS011;17218;54.070;10.012;2023-08-24T07:54:27;3.38;;;1.10;;
30420;SDS011;17218;54.070;10.012;2023-08-24T07:56:54;1.48;;;0.95;;
30420;SDS011;17218;54.070;10.012;2023-08-24T07:59:20;1.45;;;0.80;;
30420;SDS011;17218;54.070;10.012;2023-08-24T08:01:47;1.10;;;1.00;;
30420;SDS011;17218;54.070;10.012;2023-08-24T08:04:13;1.55;;;0.90;;
30420;SDS011;17218;54.070;10.012;2023-08-24T08:06:40;1.77;;;1.30;;
30420;SDS011;17218;54.070;10.012;2023-08-24T08:09:09;1.38;;;1.05;;
30420;SDS011;17218;54.070;10.012;2023-08-24T08:11:37;3.53;;;0.90;;
30420;SDS011;17218;54.070;10.012;2023-08-24T08:14:04;2.20;;;0.80;;
30420;SDS011;17218;54.070;10.012;2023-08-24T08:16:30;1.83;;;0.82;;
30420;SDS011;17218;54.070;10.012;2023-08-24T08:18:57;1.77;;;1.13;;
30420;SDS011;17218;54.070;10.012;2023-08-24T08:21:23;1.30;;;0.80;;
30420;SDS011;17218;54.070;10.012;2023-08-24T08:23:50;1.92;;;1.10;;
30420;SDS011;17218;54.070;10.012;2023-08-24T08:26:16;1.23;;;0.93;;
30420;SDS011;17218;54.070;10.012;2023-08-24T08:28:44;2.17;;;0.82;;
30420;SDS011;17218;54.070;10.012;2023-08-24T08:31:11;1.60;;;1.00;;
30420;SDS011;17218;54.070;10.012;2023-08-24T08:33:37;1.08;;;0.70;;
30420;SDS011;17218;54.070;10.012;2023-08-24T08:36:04;0.95;;;0.80;;
30420;SDS011;17218;54.070;10.012;2023-08-24T08:38:30;1.08;;;0.85;;
30420;SDS011;17218;54.070;10.012;2023-08-24T08:41:00;2.75;;;0.80;;
30420;SDS011;17218;54.070;10.012;2023-08-24T08:43:28;0.88;;;0.70;;
30420;SDS011;17218;54.070;10.012;2023-08-24T08:45:57;1.75;;;0.82;;
30420;SDS011;17218;54.070;10.012;2023-08-24T08:48:24;4.40;;;0.80;;
30420;SDS011;17218;54.070;10.012;2023-08-24T08:50:51;0.77;;;0.60;;
30420;SDS011;17218;54.070;10.012;2023-08-24T08:53:20;2.35;;;1.02;;
30420;SDS011;17218;54.070;10.012;2023-08-24T08:55:48;0.70;;;0.70;;
30420;SDS011;17218;54.070;10.012;2023-08-24T08:58:17;1.25;;;0.68;;
30420;SDS011;17218;54.070;10.012;2023-08-24T09:00:45;1.42;;;0.60;;
30420;SDS011;17218;54.070;10.012;2023-08-24T09:03:14;3.35;;;0.90;;
30420;SDS011;17218;54.070;10.012;2023-08-24T09:05:43;1.13;;;0.98;;
30420;SDS011;17218;54.070;10.012;2023-08-24T09:08:12;3.00;;;0.85;;
30420;SDS011;17218;54.070;10.012;2023-08-24T09:10:39;2.10;;;0.65;;
30420;SDS011;17218;54.070;10.012;2023-08-24T09:13:06;3.80;;;0.95;;
30420;SDS011;17218;54.070;10.012;2023-08-24T09:15:34;1.63;;;0.80;;
30420;SDS011;17218;54.070;10.012;2023-08-24T09:18:01;3.88;;;0.80;;
30420;SDS011;17218;54.070;10.012;2023-08-24T09:20:28;1.25;;;0.70;;
30420;SDS011;17218;54.070;10.012;2023-08-24T09:22:55;0.68;;;0.60;;
30420;SDS011;17218;54.070;10.012;2023-08-24T09:25:22;0.95;;;0.50;;
30420;SDS011;17218;54.070;10.012;2023-08-24T09:27:55;3.38;;;0.80;;
30420;SDS011;17218;54.070;10.012;2023-08-24T09:30:22;1.27;;;0.60;;
30420;SDS011;17218;54.070;10.012;2023-08-24T09:32:48;1.08;;;0.60;;
30420;SDS011;17218;54.070;10.012;2023-08-24T09:35:15;1.08;;;0.88;;
30420;SDS011;17218;54.070;10.012;2023-08-24T09:37:43;1.23;;;0.60;;
30420;SDS011;17218;54.070;10.012;2023-08-24T09:40:11;1.83;;;0.70;;
30420;SDS011;17218;54.070;10.012;2023-08-24T09:42:38;1.30;;;0.75;;
30420;SDS011;17218;54.070;10.012;2023-08-24T09:45:06;1.08;;;0.70;;
30420;SDS011;17218;54.070;10.012;2023-08-24T09:47:35;4.15;;;0.73;;
30420;SDS011;17218;54.070;10.012;2023-08-24T09:50:01;1.42;;;1.23;;
30420;SDS011;17218;54.070;10.012;2023-08-24T09:52:29;1.35;;;0.70;;
30420;SDS011;17218;54.070;10.012;2023-08-24T09:54:59;1.02;;;0.63;;
30420;SDS011;17218;54.070;10.012;2023-08-24T09:57:30;1.25;;;0.70;;
30420;SDS011;17218;54.070;10.012;2023-08-24T10:00:02;8.25;;;3.45;;
30420;SDS011;17218;54.070;10.012;2023-08-24T10:02:34;4.38;;;1.55;;
30420;SDS011;17218;54.070;10.012;2023-08-24T10:05:02;3.08;;;1.17;;
30420;SDS011;17218;54.070;10.012;2023-08-24T10:07:31;2.05;;;0.82;;
30420;SDS011;17218;54.070;10.012;2023-08-24T10:10:02;1.40;;;0.73;;
30420;SDS011;17218;54.070;10.012;2023-08-24T10:12:31;1.42;;;0.73;;
30420;SDS011;17218;54.070;10.012;2023-08-24T10:15:02;2.05;;;1.40;;
30420;SDS011;17218;54.070;10.012;2023-08-24T10:17:32;1.40;;;1.30;;
30420;SDS011;17218;54.070;10.012;2023-08-24T10:19:59;1.63;;;0.70;;
30420;SDS011;17218;54.070;10.012;2023-08-24T10:22:29;1.00;;;0.70;;
30420;SDS011;17218;54.070;10.012;2023-08-24T10:24:56;1.38;;;0.65;;
30420;SDS011;17218;54.070;10.012;2023-08-24T10:27:25;0.98;;;0.63;;
30420;SDS011;17218;54.070;10.012;2023-08-24T10:29:53;0.95;;;0.57;;
30420;SDS011;17218;54.070;10.012;2023-08-24T10:32:19;0.63;;;0.63;;
30420;SDS011;17218;54.070;10.012;2023-08-24T10:34:47;3.10;;;0.60;;
30420;SDS011;17218;54.070;10.012;2023-08-24T10:37:14;0.65;;;0.63;;
30420;SDS011;17218;54.070;10.012;2023-08-24T10:39:43;0.75;;;0.60;;
30420;SDS011;17218;54.070;10.012;2023-08-24T10:42:10;1.15;;;0.60;;
30420;SDS011;17218;54.070;10.012;2023-08-24T10:44:39;0.60;;;0.60;;
30420;SDS011;17218;54.070;10.012;2023-08-24T10:47:13;1.42;;;0.60;;
30420;SDS011;17218;54.070;10.012;2023-08-24T10:49:40;1.55;;;0.70;;
30420;SDS011;17218;54.070;10.012;2023-08-24T10:52:17;1.00;;;0.80;;
30420;SDS011;17218;54.070;10.012;2023-08-24T10:54:45;1.65;;;0.60;;
30420;SDS011;17218;54.070;10.012;2023-08-24T10:57:17;0.88;;;0.60;;
30420;SDS011;17218;54.070;10.012;2023-08-24T10:59:59;1.30;;;0.70;;
30420;SDS011;17218;54.070;10.012;2023-08-24T11:02:43;2.95;;;0.90;;
30420;SDS011;17218;54.070;10.012;2023-08-24T11:05:17;1.33;;;0.52;;
30420;SDS011;17218;54.070;10.012;2023-08-24T11:07:48;1.33;;;0.82;;
30420;SDS011;17218;54.070;10.012;2023-08-24T11:10:16;1.00;;;0.90;;
30420;SDS011;17218;54.070;10.012;2023-08-24T11:15:33;1.00;;;0.63;;
30420;SDS011;17218;54.070;10.012;2023-08-24T11:18:12;1.67;;;0.52;;
30420;SDS011;17218;54.070;10.012;2023-08-24T11:20:41;1.10;;;0.60;;
30420;SDS011;17218;54.070;10.012;2023-08-24T11:23:09;2.70;;;1.48;;
30420;SDS011;17218;54.070;10.012;2023-08-24T11:25:36;2.42;;;0.68;;
30420;SDS011;17218;54.070;10.012;2023-08-24T11:28:03;0.57;;;0.55;;
30420;SDS011;17218;54.070;10.012;2023-08-24T11:30:31;0.60;;;0.50;;
30420;SDS011;17218;54.070;10.012;2023-08-24T11:33:00;0.93;;;0.70;;
30420;SDS011;17218;54.070;10.012;2023-08-24T11:35:27;0.75;;;0.70;;
30420;SDS011;17218;54.070;10.012;2023-08-24T11:37:53;1.10;;;0.60;;
30420;SDS011;17218;54.070;10.012;2023-08-24T11:40:21;0.90;;;0.63;;
30420;SDS011;17218;54.070;10.012;2023-08-24T11:42:53;0.52;;;0.52;;
30420;SDS011;17218;54.070;10.012;2023-08-24T11:45:20;0.77;;;0.65;;
30420;SDS011;17218;54.070;10.012;2023-08-24T11:47:46;2.28;;;0.60;;
30420;SDS011;17218;54.070;10.012;2023-08-24T11:50:14;0.68;;;0.68;;
30420;SDS011;17218;54.070;10.012;2023-08-24T11:52:41;0.50;;;0.50;;
30420;SDS011;17218;54.070;10.012;2023-08-24T11:55:08;1.40;;;0.70;;
30420;SDS011;17218;54.070;10.012;2023-08-24T11:57:34;0.80;;;0.80;;
30420;SDS011;17218;54.070;10.012;2023-08-24T12:00:01;0.80;;;0.57;;
30420;SDS011;17218;54.070;10.012;2023-08-24T12:02:29;1.58;;;0.80;;
30420;SDS011;17218;54.070;10.012;2023-08-24T12:04:56;0.40;;;0.40;;
30420;SDS011;17218;54.070;10.012;2023-08-24T12:07:25;0.65;;;0.55;;
30420;SDS011;17218;54.070;10.012;2023-08-24T12:09:52;0.82;;;0.50;;
30420;SDS011;17218;54.070;10.012;2023-08-24T12:12:19;0.57;;;0.57;;
30420;SDS011;17218;54.070;10.012;2023-08-24T12:14:48;0.63;;;0.63;;
30420;SDS011;17218;54.070;10.012;2023-08-24T12:17:16;1.05;;;0.88;;
30420;SDS011;17218;54.070;10.012;2023-08-24T12:19:43;0.68;;;0.63;;
30420;SDS011;17218;54.070;10.012;2023-08-24T12:22:12;0.52;;;0.45;;
30420;SDS011;17218;54.070;10.012;2023-08-24T12:24:44;1.13;;;0.65;;
30420;SDS011;17218;54.070;10.012;2023-08-24T12:27:17;0.63;;;0.57;;
30420;SDS011;17218;54.070;10.012;2023-08-24T12:29:44;1.83;;;0.60;;
30420;SDS011;17218;54.070;10.012;2023-08-24T12:32:10;0.93;;;0.57;;
30420;SDS011;17218;54.070;10.012;2023-08-24T12:34:37;0.93;;;0.50;;
30420;SDS011;17218;54.070;10.012;2023-08-24T12:37:03;1.08;;;0.75;;
30420;SDS011;17218;54.070;10.012;2023-08-24T12:39:34;1.30;;;0.80;;
30420;SDS011;17218;54.070;10.012;2023-08-24T12:42:03;0.85;;;0.50;;
30420;SDS011;17218;54.070;10.012;2023-08-24T12:44:30;0.55;;;0.52;;
30420;SDS011;17218;54.070;10.012;2023-08-24T12:46:56;1.02;;;0.52;;
30420;SDS011;17218;54.070;10.012;2023-08-24T12:49:23;2.05;;;0.70;;
30420;SDS011;17218;54.070;10.012;2023-08-24T12:51:49;1.65;;;0.73;;
30420;SDS011;17218;54.070;10.012;2023-08-24T12:54:16;2.55;;;0.85;;
30420;SDS011;17218;54.070;10.012;2023-08-24T12:56:42;0.60;;;0.50;;
30420;SDS011;17218;54.070;10.012;2023-08-24T12:59:10;0.90;;;0.68;;
30420;SDS011;17218;54.070;10.012;2023-08-24T13:01:36;0.73;;;0.73;;
30420;SDS011;17218;54.070;10.012;2023-08-24T13:04:03;1.52;;;0.80;;
30420;SDS011;17218;54.070;10.012;2023-08-24T13:06:30;0.80;;;0.60;;
30420;SDS011;17218;54.070;10.012;2023-08-24T13:08:56;1.08;;;0.90;;
30420;SDS011;17218;54.070;10.012;2023-08-24T13:11:23;0.93;;;0.57;;
30420;SDS011;17218;54.070;10.012;2023-08-24T13:13:50;0.70;;;0.70;;
30420;SDS011;17218;54.070;10.012;2023-08-24T13:16:17;0.98;;;0.60;;
30420;SDS011;17218;54.070;10.012;2023-08-24T13:18:44;0.65;;;0.65;;
30420;SDS011;17218;54.070;10.012;2023-08-24T13:21:10;1.75;;;0.60;;
30420;SDS011;17218;54.070;10.012;2023-08-24T13:23:37;0.65;;;0.55;;
30420;SDS011;17218;54.070;10.012;2023-08-24T13:26:03;0.85;;;0.60;;
30420;SDS011;17218;54.070;10.012;2023-08-24T13:28:30;1.65;;;1.50;;
30420;SDS011;17218;54.070;10.012;2023-08-24T13:30:56;0.65;;;0.65;;
30420;SDS011;17218;54.070;10.012;2023-08-24T13:33:24;0.85;;;0.80;;
30420;SDS011;17218;54.070;10.012;2023-08-24T13:35:51;1.15;;;0.70;;
30420;SDS011;17218;54.070;10.012;2023-08-24T13:38:17;0.70;;;0.70;;
30420;SDS011;17218;54.070;10.012;2023-08-24T13:40:44;0.70;;;0.70;;
30420;SDS011;17218;54.070;10.012;2023-08-24T13:43:10;1.67;;;0.80;;
30420;SDS011;17218;54.070;10.012;2023-08-24T13:45:37;1.08;;;0.82;;
30420;SDS011;17218;54.070;10.012;2023-08-24T13:48:03;0.90;;;0.70;;
30420;SDS011;17218;54.070;10.012;2023-08-24T13:50:32;1.13;;;0.60;;
30420;SDS011;17218;54.070;10.012;2023-08-24T13:52:58;0.93;;;0.60;;
30420;SDS011;17218;54.070;10.012;2023-08-24T13:55:25;0.63;;;0.63;;
30420;SDS011;17218;54.070;10.012;2023-08-24T13:57:51;0.75;;;0.50;;
30420;SDS011;17218;54.070;10.012;2023-08-24T14:00:18;0.68;;;0.68;;
30420;SDS011;17218;54.070;10.012;2023-08-24T14:02:45;0.93;;;0.75;;
30420;SDS011;17218;54.070;10.012;2023-08-24T14:05:13;1.50;;;0.70;;
30420;SDS011;17218;54.070;10.012;2023-08-24T14:07:40;1.40;;;0.82;;
30420;SDS011;17218;54.070;10.012;2023-08-24T14:10:07;1.30;;;0.60;;
30420;SDS011;17218;54.070;10.012;2023-08-24T14:12:34;0.73;;;0.73;;
30420;SDS011;17218;54.070;10.012;2023-08-24T14:15:01;1.08;;;0.70;;
30420;SDS011;17218;54.070;10.012;2023-08-24T14:17:28;1.30;;;0.80;;
30420;SDS011;17218;54.070;10.012;2023-08-24T14:19:54;0.70;;;0.70;;
30420;SDS011;17218;54.070;10.012;2023-08-24T14:22:21;1.52;;;0.77;;
30420;SDS011;17218;54.070;10.012;2023-08-24T14:24:49;1.52;;;0.90;;
30420;SDS011;17218;54.070;10.012;2023-08-24T14:27:15;2.55;;;0.98;;
30420;SDS011;17218;54.070;10.012;2023-08-24T14:29:42;1.25;;;0.90;;
30420;SDS011;17218;54.070;10.012;2023-08-24T14:32:08;0.80;;;0.70;;
30420;SDS011;17218;54.070;10.012;2023-08-24T14:34:35;1.23;;;0.82;;
30420;SDS011;17218;54.070;10.012;2023-08-24T14:37:01;2.03;;;0.80;;
30420;SDS011;17218;54.070;10.012;2023-08-24T14:39:28;1.15;;;1.00;;
30420;SDS011;17218;54.070;10.012;2023-08-24T14:41:56;1.20;;;1.10;;
30420;SDS011;17218;54.070;10.012;2023-08-24T14:44:23;1.20;;;0.90;;
30420;SDS011;17218;54.070;10.012;2023-08-24T14:46:50;1.00;;;0.82;;
30420;SDS011;17218;54.070;10.012;2023-08-24T14:49:17;1.05;;;0.85;;
30420;SDS011;17218;54.070;10.012;2023-08-24T14:51:44;1.40;;;0.93;;
30420;SDS011;17218;54.070;10.012;2023-08-24T14:54:11;1.52;;;0.90;;
30420;SDS011;17218;54.070;10.012;2023-08-24T14:56:39;1.33;;;1.23;;
30420;SDS011;17218;54.070;10.012;2023-08-24T14:59:07;1.52;;;0.90;;
30420;SDS011;17218;54.070;10.012;2023-08-24T15:01:33;1.27;;;0.90;;